createdAt,value
2023-03-12T00:01:10.544Z,-1.398621
2023-03-12T00:04:36.673Z,-1.459045
2023-03-12T00:08:01.895Z,-1.489258
2023-03-12T00:11:27.129Z,-1.459045
2023-03-12T00:14:52.308Z,-1.378479
2023-03-12T00:18:17.504Z,-1.428833
2023-03-12T00:21:42.694Z,-1.378479
2023-03-12T00:25:07.890Z,-1.307983
2023-03-12T00:28:33.134Z,-1.227417
2023-03-12T00:31:58.282Z,-1.2677
2023-03-12T00:35:23.460Z,-1.297913
2023-03-12T00:38:48.644Z,-1.297913
2023-03-12T00:42:13.850Z,-1.368408
2023-03-12T00:45:39.069Z,-1.408691
2023-03-12T00:49:04.268Z,-1.328125
2023-03-12T00:52:29.460Z,-1.247559
2023-03-12T00:55:54.656Z,-1.197205
2023-03-12T00:59:19.843Z,-1.227417
2023-03-12T01:02:45.070Z,-1.227417
2023-03-12T01:06:10.231Z,-1.2677
2023-03-12T01:09:35.433Z,-1.297913
2023-03-12T01:13:00.668Z,-1.378479
2023-03-12T01:16:25.883Z,-1.398621
2023-03-12T01:19:51.093Z,-1.368408
2023-03-12T01:23:16.276Z,-1.348267
2023-03-12T01:26:41.455Z,-1.247559
2023-03-12T01:30:06.641Z,-1.2677
2023-03-12T01:33:32.919Z,-1.217346
2023-03-12T01:36:58.164Z,-1.187134
2023-03-12T01:40:23.304Z,-1.2677
2023-03-12T01:43:48.490Z,-1.2677
2023-03-12T01:47:13.698Z,-1.297913
2023-03-12T01:50:38.892Z,-1.277771
2023-03-12T01:54:04.108Z,-1.187134
2023-03-12T01:57:29.268Z,-1.247559
2023-03-12T02:00:54.528Z,-1.2677
2023-03-12T02:04:19.698Z,-1.307983
2023-03-12T02:07:44.862Z,-1.227417
2023-03-12T02:11:10.081Z,-1.277771
2023-03-12T02:14:35.248Z,-1.277771
2023-03-12T02:18:00.518Z,-1.297913
2023-03-12T02:21:25.743Z,-1.2677
2023-03-12T02:24:50.900Z,-1.2677
2023-03-12T02:28:16.109Z,-1.348267
2023-03-12T02:31:41.310Z,-1.368408
2023-03-12T02:35:06.487Z,-1.398621
2023-03-12T02:38:31.658Z,-1.368408
2023-03-12T02:41:56.840Z,-1.348267
2023-03-12T02:45:22.030Z,-1.348267
2023-03-12T02:48:47.190Z,-1.348267
2023-03-12T02:52:12.387Z,-1.348267
2023-03-12T02:55:37.568Z,-1.428833
2023-03-12T02:59:04.441Z,-1.448975
2023-03-12T03:02:27.983Z,-1.428833
2023-03-12T03:05:53.176Z,-1.509399
2023-03-12T03:09:18.379Z,-1.51947
2023-03-12T03:12:43.559Z,-1.509399
2023-03-12T03:16:08.826Z,-1.479187
2023-03-12T03:19:33.989Z,-1.459045
2023-03-12T03:22:59.154Z,-1.428833
2023-03-12T03:26:24.355Z,-1.459045
2023-03-12T03:29:45.452Z,-1.368408
2023-03-12T03:33:10.652Z,-1.328125
2023-03-12T03:36:35.845Z,-1.217346
2023-03-12T03:40:01.019Z,-1.166992
2023-03-12T03:43:26.207Z,-1.156921
2023-03-12T03:46:51.389Z,-1.096497
2023-03-12T03:50:16.593Z,-1.086426
2023-03-12T03:53:41.825Z,-1.046143
2023-03-12T03:57:06.993Z,-1.005859
2023-03-12T04:00:32.171Z,-0.975647
2023-03-12T04:03:57.387Z,-0.975647
2023-03-12T04:07:22.549Z,-1.036072
2023-03-12T04:10:47.757Z,-0.965576
2023-03-12T04:14:12.943Z,-0.915222
2023-03-12T04:17:38.119Z,-0.905151
2023-03-12T04:21:03.315Z,-0.834656
2023-03-12T04:24:28.545Z,-0.824585
2023-03-12T04:27:53.796Z,-0.733948
2023-03-12T04:31:18.996Z,-0.623169
2023-03-12T04:34:44.146Z,-0.603027
2023-03-12T04:38:09.336Z,-0.552673
2023-03-12T04:41:34.523Z,-0.552673
2023-03-12T04:44:59.740Z,-0.522461
2023-03-12T04:48:24.901Z,-0.462036
2023-03-12T04:51:50.085Z,-0.391541
2023-03-12T04:55:15.279Z,-0.441895
2023-03-12T04:58:40.470Z,-0.391541
2023-03-12T05:02:05.681Z,-0.421753
2023-03-12T05:05:30.841Z,-0.361328
2023-03-12T05:08:56.019Z,-0.371399
2023-03-12T05:12:21.210Z,-0.391541
2023-03-12T05:15:46.398Z,-0.462036
2023-03-12T05:19:11.619Z,-0.572815
2023-03-12T05:22:36.766Z,-0.542603
2023-03-12T05:26:02.003Z,-0.472107
2023-03-12T05:29:27.172Z,-0.572815
2023-03-12T05:32:52.366Z,-0.572815
2023-03-12T05:36:17.548Z,-0.643311
2023-03-12T05:39:42.708Z,-0.613098
2023-03-12T05:43:07.888Z,-0.653381
2023-03-12T05:46:33.059Z,-0.693665
2023-03-12T05:49:58.272Z,-0.703735
2023-03-12T05:53:23.475Z,-0.613098
2023-03-12T05:56:48.640Z,-0.542603
2023-03-12T06:00:13.863Z,-0.582886
2023-03-12T06:03:39.089Z,-0.542603
2023-03-12T06:07:04.189Z,-0.522461
2023-03-12T06:10:29.395Z,-0.582886
2023-03-12T06:13:54.563Z,-0.51239
2023-03-12T06:17:19.745Z,-0.441895
2023-03-12T06:20:45.173Z,-0.401611
2023-03-12T06:24:10.383Z,-0.462036
2023-03-12T06:27:35.624Z,-0.472107
2023-03-12T06:31:00.800Z,-0.462036
2023-03-12T06:34:25.959Z,-0.421753
2023-03-12T06:37:51.244Z,-0.290833
2023-03-12T06:41:16.461Z,-0.250549
2023-03-12T06:44:41.736Z,-0.159912
2023-03-12T06:48:06.928Z,-0.049133
2023-03-12T06:51:32.149Z,-0.039062
2023-03-12T06:54:57.486Z,-0.00885
2023-03-12T06:58:22.686Z,-0.049133
2023-03-12T07:01:47.917Z,-0.00885
2023-03-12T07:05:13.113Z,0.021362
2023-03-12T07:08:38.316Z,0.001221
2023-03-12T07:12:03.509Z,0.071716
2023-03-12T07:15:28.686Z,0.112
2023-03-12T07:18:53.934Z,0.212708
2023-03-12T07:22:19.096Z,0.182495
2023-03-12T07:25:44.288Z,0.182495
2023-03-12T07:29:09.476Z,0.202637
2023-03-12T07:32:34.697Z,0.212708
2023-03-12T07:35:59.938Z,0.313416
2023-03-12T07:39:25.024Z,0.464478
2023-03-12T07:42:50.496Z,0.595398
2023-03-12T07:46:15.688Z,0.61554
2023-03-12T07:49:40.905Z,0.595398
2023-03-12T07:53:06.163Z,0.655823
2023-03-12T07:56:31.364Z,0.686035
2023-03-12T07:59:56.617Z,0.786743
2023-03-12T08:03:21.951Z,0.86731
2023-03-12T08:06:46.977Z,0.957947
2023-03-12T08:10:12.257Z,0.978088
2023-03-12T08:13:37.358Z,1.058655
2023-03-12T08:17:02.527Z,1.239929
2023-03-12T08:20:27.715Z,1.260071
2023-03-12T08:23:52.915Z,1.260071
2023-03-12T08:27:18.137Z,1.270142
2023-03-12T08:30:43.314Z,1.411133
2023-03-12T08:34:08.531Z,1.521912
2023-03-12T08:37:33.718Z,1.723328
2023-03-12T08:40:58.947Z,1.834106
2023-03-12T08:44:24.178Z,1.813965
2023-03-12T08:47:49.349Z,1.793823
2023-03-12T08:51:16.786Z,1.683044
2023-03-12T08:54:39.780Z,1.542053
2023-03-12T08:58:04.992Z,1.50177
2023-03-12T09:01:30.221Z,1.693115
2023-03-12T09:04:55.395Z,1.803894
2023-03-12T09:08:20.650Z,1.934814
2023-03-12T09:11:45.818Z,2.055664
2023-03-12T09:15:11.000Z,2.025452
2023-03-12T09:18:37.802Z,1.934814
2023-03-12T09:22:01.486Z,1.985168
2023-03-12T09:25:26.709Z,2.065735
2023-03-12T09:28:51.922Z,1.975098
2023-03-12T09:32:17.164Z,1.995239
2023-03-12T09:35:42.338Z,1.975098
2023-03-12T09:39:07.497Z,2.095947
2023-03-12T09:42:32.710Z,2.236938
2023-03-12T09:45:57.892Z,2.166443
2023-03-12T09:49:23.090Z,2.015381
2023-03-12T09:52:48.295Z,2.045593
2023-03-12T09:56:13.492Z,2.055664
2023-03-12T09:59:38.692Z,2.025452
2023-03-12T10:03:03.921Z,2.166443
2023-03-12T10:06:29.098Z,2.176514
2023-03-12T10:09:54.329Z,2.267151
2023-03-12T10:13:19.506Z,2.347717
2023-03-12T10:16:44.720Z,2.528992
2023-03-12T10:20:09.914Z,2.609558
2023-03-12T10:23:35.389Z,2.6297
2023-03-12T10:27:00.716Z,2.669983
2023-03-12T10:30:25.893Z,2.720337
2023-03-12T10:33:51.133Z,2.750549
2023-03-12T10:37:16.336Z,2.659912
2023-03-12T10:40:41.520Z,2.559204
2023-03-12T10:44:06.852Z,2.478638
2023-03-12T10:47:32.023Z,2.488708
2023-03-12T10:50:57.211Z,2.639771
2023-03-12T10:54:22.407Z,2.790833
2023-03-12T10:57:47.575Z,2.740479
2023-03-12T11:01:12.804Z,2.669983
2023-03-12T11:04:37.985Z,2.639771
2023-03-12T11:08:03.174Z,2.599487
2023-03-12T11:11:28.352Z,2.6297
2023-03-12T11:14:53.562Z,2.841187
2023-03-12T11:18:18.801Z,2.962036
2023-03-12T11:21:43.985Z,3.022461
2023-03-12T11:25:09.161Z,3.113098
2023-03-12T11:28:34.402Z,3.324585
2023-03-12T11:31:59.654Z,3.606567
2023-03-12T11:35:24.862Z,3.727417
2023-03-12T11:38:50.015Z,3.858337
2023-03-12T11:42:15.219Z,3.576355
2023-03-12T11:45:40.421Z,3.546143
2023-03-12T11:49:05.615Z,3.677063
2023-03-12T11:52:30.849Z,3.838196
2023-03-12T11:55:56.039Z,3.828125
2023-03-12T11:59:21.261Z,3.656921
2023-03-12T12:02:46.544Z,3.747559
2023-03-12T12:06:11.685Z,3.646851
2023-03-12T12:09:36.924Z,3.606567
2023-03-12T12:13:02.113Z,3.596497
2023-03-12T12:16:27.411Z,3.747559
2023-03-12T12:19:52.585Z,3.727417
2023-03-12T12:23:17.784Z,3.727417
2023-03-12T12:26:43.011Z,3.656921
2023-03-12T12:30:08.233Z,3.596497
2023-03-12T12:33:33.454Z,3.495789
2023-03-12T12:36:58.655Z,3.203735
2023-03-12T12:40:23.982Z,3.173523
2023-03-12T12:43:49.249Z,3.233948
2023-03-12T12:47:15.035Z,3.324585
2023-03-12T12:50:39.640Z,3.233948
2023-03-12T12:54:05.770Z,3.294373
2023-03-12T12:57:30.970Z,3.395081
2023-03-12T13:00:56.239Z,3.183594
2023-03-12T13:04:21.444Z,3.052673
2023-03-12T13:07:46.570Z,2.972107
2023-03-12T13:11:18.620Z,3.062744
2023-03-12T13:14:36.980Z,3.13324
2023-03-12T13:18:02.212Z,3.203735
2023-03-12T13:21:27.376Z,3.062744
2023-03-12T13:24:52.593Z,3.103027
2023-03-12T13:28:17.774Z,3.173523
2023-03-12T13:31:42.973Z,3.38501
2023-03-12T13:35:08.181Z,3.425293
2023-03-12T13:38:33.368Z,3.395081
2023-03-12T13:41:58.538Z,3.38501
2023-03-12T13:45:23.752Z,3.244019
2023-03-12T13:48:48.992Z,3.354797
2023-03-12T13:52:14.205Z,3.415222
2023-03-12T13:55:39.363Z,3.51593
2023-03-12T13:59:04.570Z,3.656921
2023-03-12T14:02:29.772Z,3.656921
2023-03-12T14:05:55.349Z,3.646851
2023-03-12T14:09:20.758Z,3.616638
2023-03-12T14:12:46.408Z,3.606567
2023-03-12T14:16:11.712Z,3.576355
2023-03-12T14:19:37.057Z,3.505859
2023-03-12T14:23:02.410Z,3.566284
2023-03-12T14:26:27.770Z,3.51593
2023-03-12T14:29:53.108Z,3.495789
2023-03-12T15:05:30.057Z,3.616638
2023-03-12T15:08:55.407Z,3.616638
2023-03-12T15:12:20.815Z,3.677063
2023-03-12T15:15:46.263Z,3.747559
2023-03-12T15:19:11.590Z,3.777771
2023-03-12T15:22:37.056Z,3.797913
2023-03-12T15:26:02.421Z,3.878479
2023-03-12T15:29:27.967Z,3.868408
2023-03-12T15:32:53.243Z,3.868408
2023-03-12T15:36:18.633Z,3.787842
2023-03-12T15:39:44.070Z,3.777771
2023-03-12T15:43:09.361Z,3.868408
2023-03-12T15:46:34.992Z,3.787842
2023-03-12T15:50:00.110Z,3.787842
2023-03-12T15:53:25.448Z,3.797913
2023-03-12T15:56:50.894Z,3.858337
2023-03-12T16:00:16.248Z,3.777771
2023-03-12T16:03:41.626Z,3.797913
2023-03-12T16:07:07.008Z,3.858337
2023-03-12T16:10:32.382Z,3.969116
2023-03-12T16:13:57.817Z,3.979187
2023-03-12T16:17:23.200Z,3.999329
2023-03-12T16:20:48.588Z,4.039612
2023-03-12T16:24:13.991Z,4.059753
2023-03-12T16:27:39.231Z,4.180603
2023-03-12T16:31:04.686Z,4.220886
2023-03-12T16:34:29.919Z,4.220886
2023-03-12T16:37:55.735Z,4.200745
2023-03-12T16:41:20.537Z,4.220886
2023-03-12T16:44:46.296Z,4.27124
2023-03-12T16:48:11.034Z,4.230957
2023-03-12T16:51:36.382Z,4.14032
2023-03-12T16:55:01.799Z,4.180603
2023-03-12T16:58:27.187Z,4.089966
2023-03-12T17:01:52.600Z,4.150391
2023-03-12T17:05:17.961Z,4.230957
2023-03-12T17:08:43.334Z,4.331665
2023-03-12T17:12:08.748Z,4.341736
2023-03-12T17:15:34.233Z,4.361877
2023-03-12T17:18:59.564Z,4.361877
2023-03-12T17:22:25.164Z,4.472656
2023-03-12T17:25:50.524Z,4.512939
2023-03-12T17:29:16.063Z,4.583435
2023-03-12T17:32:41.641Z,4.553223
2023-03-12T17:36:07.038Z,4.583435
2023-03-12T17:39:32.526Z,4.593506
2023-03-12T17:42:57.968Z,4.603577
2023-03-12T17:46:23.370Z,4.633789
2023-03-12T17:49:48.773Z,4.653931
2023-03-12T17:53:14.199Z,4.674072
2023-03-12T17:56:39.573Z,4.734497
2023-03-12T18:00:05.001Z,4.784851
2023-03-12T18:03:30.420Z,4.845276
2023-03-12T18:06:55.903Z,4.855347
2023-03-12T18:10:21.240Z,4.915771
2023-03-12T18:13:46.587Z,4.986267
2023-03-12T18:17:11.789Z,4.996338
2023-03-12T18:20:39.455Z,4.956055
2023-03-12T18:24:13.321Z,4.986267
2023-03-12T18:27:27.508Z,4.996338
2023-03-12T18:30:52.809Z,4.986267
2023-03-12T18:34:18.768Z,4.996338
2023-03-12T18:37:43.952Z,5.016479
2023-03-12T18:41:09.292Z,4.915771
2023-03-12T18:44:34.475Z,4.966125
2023-03-12T18:47:59.749Z,4.986267
2023-03-12T18:51:24.898Z,4.996338
2023-03-12T18:54:50.130Z,5.086975
2023-03-12T18:58:15.315Z,5.066833
2023-03-12T19:01:40.550Z,5.127258
2023-03-12T19:05:05.757Z,5.177612
2023-03-12T19:08:30.994Z,5.167542
2023-03-12T19:11:56.151Z,5.207825
2023-03-12T19:15:21.357Z,5.238037
2023-03-12T19:18:46.789Z,5.177612
2023-03-12T19:22:12.815Z,5.167542
2023-03-12T19:25:37.985Z,5.097046
2023-03-12T19:29:03.173Z,5.097046
2023-03-12T19:32:40.549Z,5.117188
2023-03-12T19:35:53.630Z,5.117188
2023-03-12T19:39:20.992Z,5.167542
2023-03-12T19:42:43.974Z,5.197754
2023-03-12T19:46:09.219Z,5.248108
2023-03-12T19:49:34.341Z,5.27832
2023-03-12T19:52:59.552Z,5.328674
2023-03-12T19:56:24.750Z,5.298462
2023-03-12T19:59:49.944Z,5.328674
2023-03-12T20:03:15.202Z,5.298462
2023-03-12T20:06:40.359Z,5.358887
2023-03-12T20:10:05.545Z,5.389099
2023-03-12T20:13:30.801Z,5.429382
2023-03-12T20:16:56.010Z,5.479736
2023-03-12T20:20:21.152Z,5.600586
2023-03-12T20:23:46.347Z,5.630798
2023-03-12T20:27:11.530Z,5.681152
2023-03-12T20:30:36.768Z,5.751648
2023-03-12T20:34:01.959Z,5.812073
2023-03-12T20:37:27.219Z,5.78186
2023-03-12T20:40:52.405Z,5.822144
2023-03-12T20:44:17.605Z,5.862427
2023-03-12T20:47:42.946Z,5.90271
2023-03-12T20:51:08.093Z,5.932922
2023-03-12T20:54:33.290Z,5.90271
2023-03-12T20:57:58.485Z,5.90271
2023-03-12T21:01:23.699Z,5.912781
2023-03-12T21:04:48.894Z,5.912781
2023-03-12T21:08:14.049Z,5.993347
2023-03-12T21:11:39.225Z,6.003418
2023-03-12T21:15:04.423Z,6.013489
2023-03-12T21:18:29.627Z,6.03363
2023-03-12T21:21:54.851Z,6.144409
2023-03-12T21:25:20.046Z,6.094055
2023-03-12T21:28:45.211Z,6.15448
2023-03-12T21:32:10.405Z,6.184692
2023-03-12T21:35:35.609Z,6.194763
2023-03-12T21:39:00.838Z,6.224976
2023-03-12T21:42:26.011Z,6.194763
2023-03-12T21:45:51.236Z,6.184692
2023-03-12T21:49:16.511Z,6.174622
2023-03-12T21:52:43.529Z,6.214905
2023-03-12T21:56:06.819Z,6.194763
2023-03-12T21:59:31.973Z,6.144409
2023-03-12T22:02:57.162Z,6.214905
2023-03-12T22:06:22.368Z,6.15448
2023-03-12T22:09:47.547Z,6.194763
2023-03-12T22:13:12.759Z,6.194763
2023-03-12T22:16:37.909Z,6.144409
2023-03-12T22:20:03.118Z,6.114197
2023-03-12T22:23:28.325Z,6.043701
2023-03-12T22:26:53.512Z,6.063843
2023-03-12T22:30:18.802Z,6.083984
2023-03-12T22:33:43.874Z,6.114197
2023-03-12T22:37:09.071Z,6.063843
2023-03-12T22:40:34.255Z,6.03363
2023-03-12T22:43:59.444Z,6.03363
2023-03-12T22:47:24.662Z,6.013489
2023-03-12T22:50:49.818Z,6.03363
2023-03-12T22:54:15.045Z,6.003418
2023-03-12T22:57:40.218Z,6.083984
2023-03-12T23:01:05.402Z,6.083984
2023-03-12T23:04:30.654Z,6.083984
2023-03-12T23:07:55.788Z,6.144409
2023-03-12T23:11:21.000Z,6.083984
2023-03-12T23:14:46.135Z,6.114197
2023-03-12T23:18:11.332Z,6.063843
2023-03-12T23:21:36.526Z,6.083984
2023-03-12T23:25:01.700Z,6.184692
2023-03-12T23:28:26.881Z,6.174622
2023-03-12T23:31:52.111Z,6.15448
2023-03-12T23:35:17.323Z,6.15448
2023-03-12T23:38:42.491Z,6.224976
2023-03-12T23:42:07.635Z,6.265259
2023-03-12T23:45:32.899Z,6.325684
2023-03-12T23:48:58.028Z,6.295471
2023-03-12T23:52:23.228Z,6.245117
2023-03-12T23:55:48.423Z,6.245117
2023-03-12T23:59:13.602Z,6.224976
